Aktuální počasí v Česku a ve světě - METAR

Seznam meteostanic umístěných nejčasteji na letišti v ČR a ve světě

Vyhledat místa podle abecedy:
A B C D E F G H I J K L M N O P Q R S T U V W X Y Z

Filtrovat:

ID stanice:
a/nebo
Název místa (fulltext):
 
Místo (ID)Naposledy načteno 
Gaborone (FBSK) 14.08.2020 13:00 UTC Zobrazit METAR
FBSK 141300Z 03007KT 360V080 CAVOK 24/00 Q1020 NOSIG
Gaza (LVGZ) Zatím nenačteno  
Geneva (LSGG) 14.08.2020 11:50 UTC Zobrazit METAR
LSGG 141150Z VRB03KT 9999 FEW025 25/16 Q1017 NOSIG
George Town (MWCR) 14.08.2020 13:00 UTC Zobrazit METAR
MWCR 141300Z /////KT 9999 FEW020 30/26 Q1012 RMK WND SPD AND DIR EST 08008KT
Georgetown (SYCJ) 14.08.2020 13:00 UTC Zobrazit METAR
SYCJ 141300Z 10008KT 060V120 9999 SCT020 30/25 Q1010 NOSIG
Gibraltar (LXGB) 14.08.2020 12:50 UTC Zobrazit METAR
LXGB 141250Z 20012KT 9999 FEW026 27/20 Q1014 TEMPO 22015G25KT RMK BLU BLU
Glasgow (EGPF) 14.08.2020 12:50 UTC Zobrazit METAR
EGPF 141250Z AUTO 07006KT 030V100 9999 OVC012 18/15 Q1018
Gomel (UMGG) 30.08.2014 17:00 UTC Zobrazit METAR
UMGG 301700Z CAVOK 19/10 Q1017 R28/CLRD// NOSIG
Goteborg (ESGG) 14.08.2020 12:50 UTC Zobrazit METAR
ESGG 141250Z 23007KT CAVOK 25/12 Q1015
Grand Turk Island (MBGT) 13.08.2020 21:00 UTC Zobrazit METAR
MBGT 132100Z 08010KT 9999 SCT015 SCT040 30/26 Q1014
Graz (LOWG) 14.08.2020 09:50 UTC Zobrazit METAR
LOWG 140950Z VRB03KT 9999 FEW050 25/18 Q1015 NOSIG
Grodno (UMMG) Zatím nenačteno  
Guatemala City (MGGT) 14.08.2020 13:00 UTC Zobrazit METAR
MGGT 141300Z 04010KT CAVOK 18/15 Q1024 A3024 SCT200
Reklama

Počasí na Váš email

Emaily jsou bez reklamy a bez spamu



Odhlásit newsletter




Další české internetové stránky (nejen) o počasí najdete v katalogu TOPlist - weby o počasí nebo vyhledejte na internetu, co jste tu na 🌞 Slunečnu ⛅ zatím nenašli:
⭐ Přidat Slunečno.cz do oblíbených | 🏠 Nastavit Slunečno.cz jako HOMEPAGE

⬆️ Posunout stránku nahoru ⬆️
Reklama